createdAt,value
2022-09-16T00:00:57.181Z,1003.5
2022-09-16T00:03:52.469Z,1003.5
2022-09-16T00:06:52.503Z,1003.5
2022-09-16T00:09:52.727Z,1003.5
2022-09-16T00:12:52.949Z,1003.6
2022-09-16T00:15:53.181Z,1003.6
2022-09-16T00:18:53.372Z,1003.6
2022-09-16T00:21:53.587Z,1003.6
2022-09-16T00:24:53.788Z,1003.6
2022-09-16T00:27:54.025Z,1003.6
2022-09-16T00:30:59.238Z,1003.6
2022-09-16T00:33:54.486Z,1003.6
2022-09-16T00:36:54.698Z,1003.6
2022-09-16T00:39:54.969Z,1003.6
2022-09-16T00:42:55.114Z,1003.6
2022-09-16T00:45:55.338Z,1003.6
2022-09-16T00:48:55.586Z,1003.6
2022-09-16T00:51:50.768Z,1003.6
2022-09-16T00:54:50.962Z,1003.7
2022-09-16T00:57:51.212Z,1003.7
2022-09-16T01:00:51.519Z,1003.7
2022-09-16T01:03:51.746Z,1003.7
2022-09-16T01:06:51.857Z,1003.8
2022-09-16T01:09:52.084Z,1003.8
2022-09-16T01:12:52.305Z,1003.8
2022-09-16T01:15:52.570Z,1003.8
2022-09-16T01:18:52.728Z,1003.8
2022-09-16T01:21:52.976Z,1003.8
2022-09-16T01:24:53.181Z,1003.8
2022-09-16T01:27:53.401Z,1003.8
2022-09-16T01:30:53.608Z,1003.8
2022-09-16T01:33:53.833Z,1003.7
2022-09-16T01:36:54.037Z,1003.7
2022-09-16T01:39:54.319Z,1003.7
2022-09-16T01:42:54.479Z,1003.7
2022-09-16T01:45:54.710Z,1003.7
2022-09-16T01:48:54.924Z,1003.7
2022-09-16T01:51:55.182Z,1003.7
2022-09-16T01:54:55.360Z,1003.7
2022-09-16T01:57:55.579Z,1003.6
2022-09-16T02:00:50.810Z,1003.6
2022-09-16T02:03:51.056Z,1003.6
2022-09-16T02:06:51.217Z,1003.6
2022-09-16T02:09:51.460Z,1003.5
2022-09-16T02:12:51.685Z,1003.5
2022-09-16T02:15:51.988Z,1003.5
2022-09-16T02:18:52.291Z,1003.5
2022-09-16T02:21:52.338Z,1003.4
2022-09-16T02:24:52.573Z,1003.4
2022-09-16T02:27:52.760Z,1003.4
2022-09-16T02:30:58.044Z,1003.4
2022-09-16T02:33:53.235Z,1003.4
2022-09-16T02:36:53.451Z,1003.4
2022-09-16T02:39:53.721Z,1003.4
2022-09-16T02:42:53.859Z,1003.4
2022-09-16T02:45:54.094Z,1003.4
2022-09-16T02:48:54.309Z,1003.4
2022-09-16T02:51:54.526Z,1003.4
2022-09-16T02:54:54.741Z,1003.4
2022-09-16T02:57:54.966Z,1003.4
2022-09-16T03:01:20.237Z,1003.4
2022-09-16T03:03:55.416Z,1003.4
2022-09-16T03:06:50.651Z,1003.4
2022-09-16T03:09:50.866Z,1003.4
2022-09-16T03:12:56.064Z,1003.3
2022-09-16T03:15:51.329Z,1003.3
2022-09-16T03:18:51.488Z,1003.3
2022-09-16T03:21:51.722Z,1003.3
2022-09-16T03:24:51.931Z,1003.3
2022-09-16T03:27:52.153Z,1003.2
2022-09-16T03:30:52.428Z,1003.2
2022-09-16T03:33:52.708Z,1003.2
2022-09-16T03:36:52.809Z,1003.2
2022-09-16T03:39:53.109Z,1003.2
2022-09-16T03:42:53.246Z,1003.2
2022-09-16T03:45:53.549Z,1003.2
2022-09-16T03:48:53.692Z,1003.1
2022-09-16T03:51:53.903Z,1003.1
2022-09-16T03:54:54.117Z,1003.1
2022-09-16T03:57:54.345Z,1003
2022-09-16T04:00:54.568Z,1003
2022-09-16T04:03:54.942Z,1003
2022-09-16T04:06:55.007Z,1003
2022-09-16T04:09:55.227Z,1003
2022-09-16T04:12:55.444Z,1003.1
2022-09-16T04:15:55.749Z,1003.1
2022-09-16T04:18:55.862Z,1003.1
2022-09-16T04:21:51.105Z,1003.1
2022-09-16T04:24:51.311Z,1003.1
2022-09-16T04:27:51.578Z,1003.1
2022-09-16T04:30:51.786Z,1003
2022-09-16T04:33:51.988Z,1003
2022-09-16T04:36:52.206Z,1003
2022-09-16T04:39:52.444Z,1003
2022-09-16T04:42:52.649Z,1003
2022-09-16T04:45:52.940Z,1002.9
2022-09-16T04:48:53.060Z,1002.9
2022-09-16T04:51:53.297Z,1002.9
2022-09-16T04:54:53.508Z,1002.9
2022-09-16T04:57:53.734Z,1002.9
2022-09-16T05:01:04.070Z,1002.9
2022-09-16T05:03:54.187Z,1002.9
2022-09-16T05:06:54.510Z,1002.9
2022-09-16T05:09:54.759Z,1002.9
2022-09-16T05:12:54.959Z,1002.9
2022-09-16T05:15:55.411Z,1002.9
2022-09-16T05:18:55.399Z,1003
2022-09-16T05:21:55.602Z,1002.9
2022-09-16T05:24:50.831Z,1002.9
2022-09-16T05:27:51.057Z,1002.9
2022-09-16T05:30:51.442Z,1002.9
2022-09-16T05:33:51.530Z,1002.8
2022-09-16T05:36:51.714Z,1002.8
2022-09-16T05:39:52.021Z,1002.8
2022-09-16T05:42:52.167Z,1002.8
2022-09-16T05:45:52.518Z,1002.8
2022-09-16T05:48:52.570Z,1002.8
2022-09-16T05:51:52.791Z,1002.8
2022-09-16T05:54:53.005Z,1002.8
2022-09-16T05:57:53.225Z,1002.8
2022-09-16T06:00:53.490Z,1002.9
2022-09-16T06:03:53.822Z,1002.9
2022-09-16T06:06:53.897Z,1002.9
2022-09-16T06:09:54.119Z,1002.8
2022-09-16T06:12:54.347Z,1002.8
2022-09-16T06:15:54.666Z,1002.8
2022-09-16T06:18:55.096Z,1002.8
2022-09-16T06:21:54.991Z,1002.8
2022-09-16T06:24:55.209Z,1002.8
2022-09-16T06:27:55.417Z,1002.8
2022-09-16T06:30:50.756Z,1002.7
2022-09-16T06:33:50.868Z,1002.7
2022-09-16T06:36:51.169Z,1002.7
2022-09-16T06:39:51.482Z,1002.7
2022-09-16T06:42:51.518Z,1002.6
2022-09-16T06:45:52.032Z,1002.6
2022-09-16T06:48:51.953Z,1002.6
2022-09-16T06:51:52.179Z,1002.6
2022-09-16T06:54:52.380Z,1002.5
2022-09-16T06:57:52.609Z,1002.5
2022-09-16T07:00:52.963Z,1002.5
2022-09-16T07:03:53.338Z,1002.5
2022-09-16T07:07:11.059Z,1002.5
2022-09-16T07:09:53.494Z,1002.5
2022-09-16T07:12:53.709Z,1002.5
2022-09-16T07:16:14.241Z,1002.5
2022-09-16T07:19:01.286Z,1002.4
2022-09-16T07:21:54.397Z,1002.4
2022-09-16T07:24:54.595Z,1002.4
2022-09-16T07:27:54.835Z,1002.4
2022-09-16T07:30:55.294Z,1002.5
2022-09-16T07:33:55.671Z,1002.5
2022-09-16T07:36:55.530Z,1002.5
2022-09-16T07:39:50.912Z,1002.5
2022-09-16T07:42:55.906Z,1002.5
2022-09-16T07:45:56.289Z,1002.5
2022-09-16T07:48:56.473Z,1002.5
2022-09-16T07:51:51.570Z,1002.5
2022-09-16T07:54:51.777Z,1002.5
2022-09-16T07:57:52.012Z,1002.5
2022-09-16T08:01:04.806Z,1002.5
2022-09-16T08:03:52.559Z,1002.5
2022-09-16T08:06:52.673Z,1002.5
2022-09-16T08:09:54.144Z,1002.5
2022-09-16T08:12:53.186Z,1002.6
2022-09-16T08:15:53.347Z,1002.6
2022-09-16T08:18:53.530Z,1002.6
2022-09-16T08:21:53.763Z,1002.6
2022-09-16T08:24:53.987Z,1002.6
2022-09-16T08:27:56.616Z,1002.5
2022-09-16T08:30:54.403Z,1002.5
2022-09-16T08:33:54.642Z,1002.5
2022-09-16T08:36:54.856Z,1002.5
2022-09-16T08:39:55.286Z,1002.6
2022-09-16T08:42:55.303Z,1002.6
2022-09-16T08:45:55.748Z,1002.6
2022-09-16T08:48:55.960Z,1002.6
2022-09-16T08:51:56.048Z,1002.6
2022-09-16T08:54:51.250Z,1002.7
2022-09-16T08:57:51.448Z,1002.7
2022-09-16T09:00:51.807Z,1002.7
2022-09-16T09:03:51.959Z,1002.7
2022-09-16T09:06:52.107Z,1002.7
2022-09-16T09:09:52.338Z,1002.7
2022-09-16T09:12:54.658Z,1002.7
2022-09-16T09:15:52.829Z,1002.6
2022-09-16T09:18:53.125Z,1002.6
2022-09-16T09:21:53.209Z,1002.6
2022-09-16T09:24:57.180Z,1002.6
2022-09-16T09:27:53.657Z,1002.6
2022-09-16T09:30:53.872Z,1002.5
2022-09-16T09:33:54.708Z,1002.5
2022-09-16T09:36:54.330Z,1002.5
2022-09-16T09:39:54.661Z,1002.5
2022-09-16T09:42:54.765Z,1002.4
2022-09-16T09:45:55.174Z,1002.4
2022-09-16T09:48:55.291Z,1002.4
2022-09-16T09:51:55.433Z,1002.3
2022-09-16T09:54:50.616Z,1002.3
2022-09-16T09:57:50.834Z,1002.3
2022-09-16T10:00:56.521Z,1002.3
2022-09-16T10:03:51.273Z,1002.2
2022-09-16T10:06:51.648Z,1002.2
2022-09-16T10:09:51.777Z,1002.2
2022-09-16T10:12:51.961Z,1002.2
2022-09-16T10:15:56.042Z,1002.2
2022-09-16T10:18:52.364Z,1002.2
2022-09-16T10:21:52.596Z,1002.2
2022-09-16T10:24:52.792Z,1002.1
2022-09-16T10:27:53.033Z,1002.1
2022-09-16T10:30:53.251Z,1002.1
2022-09-16T10:33:53.569Z,1002.1
2022-09-16T10:36:53.692Z,1002.1
2022-09-16T10:39:54.047Z,1002
2022-09-16T10:42:54.194Z,1002
2022-09-16T10:45:54.510Z,1001.9
2022-09-16T10:48:54.567Z,1001.9
2022-09-16T10:51:54.776Z,1001.9
2022-09-16T10:54:54.993Z,1001.8
2022-09-16T10:57:55.212Z,1001.8
2022-09-16T11:01:01.138Z,1001.8
2022-09-16T11:03:55.673Z,1001.7
2022-09-16T11:06:55.877Z,1001.7
2022-09-16T11:09:51.381Z,1001.6
2022-09-16T11:12:51.332Z,1001.6
2022-09-16T11:15:51.732Z,1001.6
2022-09-16T11:18:53.230Z,1001.6
2022-09-16T11:21:51.970Z,1001.6
2022-09-16T11:24:52.189Z,1001.6
2022-09-16T11:27:52.404Z,1001.7
2022-09-16T11:30:53.689Z,1001.7
2022-09-16T11:33:53.059Z,1001.8
2022-09-16T11:36:53.079Z,1001.8
2022-09-16T11:39:53.499Z,1001.8
2022-09-16T11:42:53.505Z,1001.8
2022-09-16T11:45:53.713Z,1001.8
2022-09-16T11:48:54.031Z,1001.8
2022-09-16T11:51:54.155Z,1001.7
2022-09-16T11:54:54.361Z,1001.7
2022-09-16T11:57:54.600Z,1001.7
2022-09-16T12:00:54.816Z,1001.6
2022-09-16T12:03:55.074Z,1001.6
2022-09-16T12:06:55.265Z,1001.5
2022-09-16T12:09:55.480Z,1001.5
2022-09-16T12:12:55.721Z,1001.4
2022-09-16T12:15:55.907Z,1001.3
2022-09-16T12:18:56.123Z,1001.3
2022-09-16T12:21:58.447Z,1001.2
2022-09-16T12:24:51.546Z,1001.2
2022-09-16T12:27:51.795Z,1001.2
2022-09-16T12:30:57.104Z,1001.2
2022-09-16T12:33:57.235Z,1001.3
2022-09-16T12:36:52.464Z,1001.3
2022-09-16T12:39:52.809Z,1001.3
2022-09-16T12:42:52.868Z,1001.3
2022-09-16T12:45:53.067Z,1001.3
2022-09-16T12:48:53.301Z,1001.3
2022-09-16T12:51:53.524Z,1001.3
2022-09-16T12:55:09.085Z,1001.2
2022-09-16T12:57:53.960Z,1001.1
2022-09-16T13:00:59.174Z,1001.1
2022-09-16T13:03:54.543Z,1001.1
2022-09-16T13:06:54.639Z,1001.1
2022-09-16T13:09:54.846Z,1001.1
2022-09-16T13:12:55.055Z,1001.1
2022-09-16T13:15:55.395Z,1001.1
2022-09-16T13:18:55.624Z,1001.2
2022-09-16T13:21:55.722Z,1001.2
2022-09-16T13:24:50.913Z,1001.2
2022-09-16T13:27:56.182Z,1001.1
2022-09-16T13:30:56.534Z,1001.1
2022-09-16T13:33:51.589Z,1001.1
2022-09-16T13:36:51.791Z,1001.1
2022-09-16T13:39:52.136Z,1001.1
2022-09-16T13:42:52.187Z,1001.1
2022-09-16T13:45:52.485Z,1001
2022-09-16T13:48:52.669Z,1001
2022-09-16T13:51:52.815Z,1001
2022-09-16T13:55:12.181Z,1001
2022-09-16T13:57:53.295Z,1001
2022-09-16T14:00:53.499Z,1001
2022-09-16T14:03:53.911Z,1001
2022-09-16T14:06:53.935Z,1001
2022-09-16T14:09:55.439Z,1001
2022-09-16T14:12:54.374Z,1000.9
2022-09-16T14:15:54.710Z,1000.9
2022-09-16T14:18:54.790Z,1000.8
2022-09-16T14:21:55.028Z,1000.7
2022-09-16T14:25:28.688Z,1000.6
2022-09-16T14:27:55.497Z,1000.6
2022-09-16T14:30:55.933Z,1000.5
2022-09-16T14:33:57.199Z,1000.4
2022-09-16T14:36:51.165Z,1000.3
2022-09-16T14:39:56.486Z,1000.2
2022-09-16T14:42:51.559Z,1000.1
2022-09-16T14:45:51.937Z,1000
2022-09-16T14:48:57.311Z,1000
2022-09-16T14:51:52.218Z,999.9
2022-09-16T14:54:52.431Z,999.8
2022-09-16T14:57:52.641Z,999.7
2022-09-16T15:00:52.877Z,999.7
2022-09-16T15:03:53.080Z,999.6
2022-09-16T15:06:53.311Z,999.6
2022-09-16T15:09:53.524Z,999.5
2022-09-16T15:12:53.760Z,999.5
2022-09-16T15:15:54.065Z,999.4
2022-09-16T15:18:54.215Z,999.3
2022-09-16T15:21:54.395Z,999.3
2022-09-16T15:24:54.609Z,999.2
2022-09-16T15:27:54.811Z,999.2
2022-09-16T15:30:55.343Z,999.1
2022-09-16T15:33:55.296Z,999
2022-09-16T15:36:55.569Z,999
2022-09-16T15:39:55.845Z,999
2022-09-16T15:42:55.982Z,998.9
2022-09-16T15:45:56.279Z,998.9
2022-09-16T15:48:56.324Z,998.9
2022-09-16T15:52:01.470Z,998.9
2022-09-16T15:54:51.685Z,998.9
2022-09-16T15:57:51.903Z,998.9
2022-09-16T16:00:52.150Z,998.9
2022-09-16T16:03:52.368Z,998.9
2022-09-16T16:06:52.662Z,998.9
2022-09-16T16:09:52.802Z,999
2022-09-16T16:12:53.052Z,999
2022-09-16T16:15:53.366Z,999
2022-09-16T16:18:53.446Z,999
2022-09-16T16:21:53.656Z,999
2022-09-16T16:24:53.878Z,999
2022-09-16T16:27:54.099Z,999
2022-09-16T16:30:54.449Z,999
2022-09-16T16:33:54.527Z,999
2022-09-16T16:36:54.764Z,999
2022-09-16T16:39:55.220Z,999.1
2022-09-16T16:42:55.247Z,999.1
2022-09-16T16:45:55.618Z,999.1
2022-09-16T16:48:55.693Z,999.1
2022-09-16T16:51:55.863Z,999.1
2022-09-16T16:54:56.083Z,999.1
2022-09-16T16:57:51.308Z,999.2
2022-09-16T17:00:51.539Z,999.2
2022-09-16T17:03:51.726Z,999.2
2022-09-16T17:07:26.296Z,999.3
2022-09-16T17:09:52.190Z,999.3
2022-09-16T17:12:52.411Z,999.4
2022-09-16T17:15:52.797Z,999.4
2022-09-16T17:18:52.840Z,999.5
2022-09-16T17:21:53.055Z,999.5
2022-09-16T17:24:53.310Z,999.6
2022-09-16T17:27:53.479Z,999.6
2022-09-16T17:30:53.918Z,999.7
2022-09-16T17:33:53.931Z,999.7
2022-09-16T17:36:54.149Z,999.8
2022-09-16T17:39:54.681Z,999.8
2022-09-16T17:42:54.581Z,999.9
2022-09-16T17:45:54.943Z,999.9
2022-09-16T17:48:55.009Z,1000
2022-09-16T17:51:55.274Z,1000
2022-09-16T17:54:55.453Z,1000.1
2022-09-16T17:57:55.698Z,1000.1
2022-09-16T18:00:55.913Z,1000.2
2022-09-16T18:03:51.389Z,1000.2
2022-09-16T18:06:51.376Z,1000.3
2022-09-16T18:09:51.576Z,1000.3
2022-09-16T18:12:51.812Z,1000.3
2022-09-16T18:15:52.020Z,1000.4
2022-09-16T18:18:52.209Z,1000.4
2022-09-16T18:21:52.449Z,1000.4
2022-09-16T18:24:52.662Z,1000.5
2022-09-16T18:27:52.774Z,1000.5
2022-09-16T18:30:53.003Z,1000.5
2022-09-16T18:33:53.240Z,1000.5
2022-09-16T18:36:53.432Z,1000.5
2022-09-16T18:39:53.680Z,1000.5
2022-09-16T18:42:53.868Z,1000.5
2022-09-16T18:45:54.127Z,1000.6
2022-09-16T18:48:54.306Z,1000.6
2022-09-16T18:51:54.523Z,1000.6
2022-09-16T18:54:54.736Z,1000.7
2022-09-16T18:57:54.957Z,1000.7
2022-09-16T19:00:55.227Z,1000.8
2022-09-16T19:03:55.417Z,1000.8
2022-09-16T19:06:50.621Z,1000.9
2022-09-16T19:09:50.855Z,1000.9
2022-09-16T19:12:51.058Z,1000.9
2022-09-16T19:15:51.292Z,1001
2022-09-16T19:18:51.498Z,1001
2022-09-16T19:21:51.751Z,1001
2022-09-16T19:24:51.930Z,1001.1
2022-09-16T19:27:52.157Z,1001.1
2022-09-16T19:30:52.371Z,1001.1
2022-09-16T19:33:52.597Z,1001.2
2022-09-16T19:36:52.815Z,1001.2
2022-09-16T19:39:53.139Z,1001.2
2022-09-16T19:42:53.249Z,1001.3
2022-09-16T19:45:53.553Z,1001.3
2022-09-16T19:48:53.690Z,1001.4
2022-09-16T19:51:53.941Z,1001.4
2022-09-16T19:54:54.142Z,1001.4
2022-09-16T19:57:54.389Z,1001.4
2022-09-16T20:00:56.557Z,1001.5
2022-09-16T20:03:54.795Z,1001.5
2022-09-16T20:06:55.013Z,1001.5
2022-09-16T20:10:05.220Z,1001.5
2022-09-16T20:12:59.208Z,1001.5
2022-09-16T20:15:55.682Z,1001.6
2022-09-16T20:18:50.883Z,1001.6
2022-09-16T20:21:51.139Z,1001.6
2022-09-16T20:25:12.436Z,1001.6
2022-09-16T20:27:51.545Z,1001.6
2022-09-16T20:30:51.747Z,1001.6
2022-09-16T20:33:51.979Z,1001.6
2022-09-16T20:36:52.184Z,1001.6
2022-09-16T20:39:52.478Z,1001.6
2022-09-16T20:42:52.624Z,1001.7
2022-09-16T20:45:52.909Z,1001.7
2022-09-16T20:48:53.063Z,1001.7
2022-09-16T20:51:53.280Z,1001.7
2022-09-16T20:54:53.491Z,1001.8
2022-09-16T20:57:53.706Z,1001.8
2022-09-16T21:01:09.016Z,1001.8
2022-09-16T21:03:54.164Z,1001.8
2022-09-16T21:06:54.368Z,1001.9
2022-09-16T21:09:54.608Z,1001.9
2022-09-16T21:12:54.795Z,1001.9
2022-09-16T21:15:55.060Z,1002
2022-09-16T21:18:55.240Z,1002
2022-09-16T21:21:50.465Z,1002
2022-09-16T21:24:55.687Z,1002.1
2022-09-16T21:27:50.952Z,1002.1
2022-09-16T21:30:56.162Z,1002.1
2022-09-16T21:33:51.350Z,1002.2
2022-09-16T21:36:54.053Z,1002.2
2022-09-16T21:39:51.862Z,1002.2
2022-09-16T21:42:51.997Z,1002.3
2022-09-16T21:45:52.316Z,1002.3
2022-09-16T21:48:52.442Z,1002.4
2022-09-16T21:51:52.690Z,1002.4
2022-09-16T21:54:52.927Z,1002.4
2022-09-16T21:57:53.109Z,1002.4
2022-09-16T22:00:53.425Z,1002.5
2022-09-16T22:03:53.550Z,1002.5
2022-09-16T22:06:53.777Z,1002.5
2022-09-16T22:09:53.987Z,1002.5
2022-09-16T22:12:54.246Z,1002.5
2022-09-16T22:15:54.480Z,1002.5
2022-09-16T22:18:54.654Z,1002.5
2022-09-16T22:21:54.875Z,1002.5
2022-09-16T22:24:55.085Z,1002.5
2022-09-16T22:27:55.353Z,1002.6
2022-09-16T22:30:50.519Z,1002.6
2022-09-16T22:33:55.809Z,1002.6
2022-09-16T22:36:50.956Z,1002.6
2022-09-16T22:39:56.258Z,1002.6
2022-09-16T22:42:51.392Z,1002.6
2022-09-16T22:45:51.668Z,1002.6
2022-09-16T22:48:51.847Z,1002.6
2022-09-16T22:51:52.073Z,1002.6
2022-09-16T22:54:52.318Z,1002.6
2022-09-16T22:57:52.506Z,1002.6
2022-09-16T23:00:57.726Z,1002.6
2022-09-16T23:03:53.077Z,1002.6
2022-09-16T23:06:53.151Z,1002.6
2022-09-16T23:09:53.386Z,1002.7
2022-09-16T23:12:53.579Z,1002.7
2022-09-16T23:15:53.941Z,1002.7
2022-09-16T23:18:54.038Z,1002.7
2022-09-16T23:21:54.262Z,1002.7
2022-09-16T23:24:54.463Z,1002.7
2022-09-16T23:27:54.694Z,1002.6
2022-09-16T23:30:59.946Z,1002.6
2022-09-16T23:33:55.154Z,1002.6
2022-09-16T23:36:55.338Z,1002.6
2022-09-16T23:39:55.632Z,1002.6
2022-09-16T23:42:55.788Z,1002.6
2022-09-16T23:45:51.003Z,1002.6
2022-09-16T23:48:56.216Z,1002.7
2022-09-16T23:51:51.480Z,1002.7
2022-09-16T23:54:51.681Z,1002.7
2022-09-16T23:57:51.891Z,1002.7
